createdAt,value
2023-01-12T00:00:41.264Z,3.00
2023-01-12T00:05:16.379Z,3.80
2023-01-12T00:07:13.707Z,5.97
2023-01-12T00:13:38.138Z,3.70
2023-01-12T00:16:43.875Z,3.08
2023-01-12T00:19:39.612Z,3.85
2023-01-12T00:22:23.930Z,2.92
2023-01-12T00:25:05.876Z,4.80
2023-01-12T00:30:49.615Z,3.15
2023-01-12T00:33:39.549Z,2.35
2023-01-12T00:36:33.068Z,2.65
2023-01-12T00:39:11.959Z,1.83
2023-01-12T00:42:07.208Z,4.53
2023-01-12T00:48:17.297Z,3.17
2023-01-12T00:54:35.249Z,2.22
2023-01-12T00:57:39.362Z,3.45
2023-01-12T01:01:15.172Z,2.45
2023-01-12T01:11:23.812Z,2.42
2023-01-12T01:14:00.970Z,2.53
2023-01-12T01:17:15.580Z,3.08
2023-01-12T01:20:29.584Z,3.72
2023-01-12T01:30:45.100Z,3.80
2023-01-12T01:33:28.207Z,4.68
2023-01-12T01:36:47.809Z,2.28
2023-01-12T01:39:40.432Z,3.40
2023-01-12T01:42:30.935Z,3.42
2023-01-12T01:45:21.799Z,2.63
2023-01-12T01:48:20.977Z,2.50
2023-01-12T01:51:10.761Z,2.33
2023-01-12T01:53:45.295Z,3.15
2023-01-12T01:56:42.668Z,2.65
2023-01-12T02:02:33.458Z,2.95
2023-01-12T02:08:15.262Z,4.40
2023-01-12T02:11:11.827Z,3.13
2023-01-12T02:14:21.665Z,2.63
2023-01-12T02:17:13.814Z,1.58
2023-01-12T02:20:41.043Z,1.65
2023-01-12T02:27:15.686Z,1.50
2023-01-12T02:30:46.719Z,1.50
2023-01-12T02:34:17.477Z,1.92
2023-01-12T02:37:10.206Z,1.27
2023-01-12T02:39:51.375Z,2.90
2023-01-12T02:45:55.128Z,1.58
2023-01-12T02:48:32.831Z,1.55
2023-01-12T02:52:16.873Z,1.40
2023-01-12T02:55:13.072Z,1.00
2023-01-12T02:58:34.198Z,0.98
2023-01-12T03:04:52.664Z,1.88
2023-01-12T03:08:52.242Z,1.52
2023-01-12T03:11:59.229Z,1.10
2023-01-12T03:14:42.872Z,0.85
2023-01-12T03:17:23.758Z,1.10
2023-01-12T03:23:33.218Z,1.88
2023-01-12T03:26:03.581Z,0.75
2023-01-12T03:28:40.456Z,1.48
2023-01-12T03:31:18.749Z,0.68
2023-01-12T03:34:16.416Z,0.68
2023-01-12T03:43:39.517Z,0.90
2023-01-12T03:46:13.295Z,0.90
2023-01-12T03:49:17.386Z,0.90
2023-01-12T03:52:11.842Z,1.67
2023-01-12T03:55:22.374Z,1.10
2023-01-12T04:02:10.025Z,0.80
2023-01-12T04:05:02.960Z,0.70
2023-01-12T04:08:07.628Z,1.02
2023-01-12T04:11:24.485Z,0.93
2023-01-12T04:14:18.646Z,2.15
2023-01-12T04:17:21.947Z,1.10
2023-01-12T04:23:13.682Z,1.13
2023-01-12T04:26:19.920Z,1.30
2023-01-12T04:29:18.380Z,0.63
2023-01-12T04:37:21.440Z,0.82
2023-01-12T04:40:17.837Z,0.77
2023-01-12T04:42:53.003Z,0.70
2023-01-12T04:46:07.252Z,0.70
2023-01-12T04:48:53.113Z,0.40
2023-01-12T04:55:14.916Z,0.50
2023-01-12T04:56:07.424Z,0.75
2023-01-12T04:58:35.168Z,0.98
2023-01-12T05:01:57.503Z,0.52
2023-01-12T05:06:58.385Z,0.45
2023-01-12T05:08:57.457Z,0.40
2023-01-12T05:11:37.758Z,1.20
2023-01-12T05:14:59.103Z,0.68
2023-01-12T05:18:08.223Z,0.50
2023-01-12T05:20:54.255Z,0.77
2023-01-12T05:24:25.203Z,0.60
2023-01-12T05:27:16.463Z,0.55
2023-01-12T05:33:24.609Z,0.32
2023-01-12T05:36:30.331Z,0.40
2023-01-12T05:39:29.517Z,0.40
2023-01-12T05:42:30.455Z,0.73
2023-01-12T05:46:11.249Z,0.35
2023-01-12T05:48:53.806Z,0.77
2023-01-12T05:54:52.660Z,0.47
2023-01-12T05:58:03.261Z,0.40
2023-01-12T06:01:12.074Z,0.70
2023-01-12T06:04:25.891Z,0.40
2023-01-12T06:07:21.656Z,0.90
2023-01-12T06:10:42.338Z,0.40
2023-01-12T06:13:48.351Z,1.05
2023-01-12T06:20:38.403Z,0.30
2023-01-12T06:23:35.661Z,0.40
2023-01-12T06:26:26.606Z,1.50
2023-01-12T06:29:29.363Z,0.75
2023-01-12T06:32:26.342Z,0.93
2023-01-12T06:35:14.053Z,1.00
2023-01-12T06:40:49.426Z,0.50
2023-01-12T06:43:19.812Z,0.90
2023-01-12T06:45:49.117Z,1.55
2023-01-12T06:48:18.070Z,0.68
2023-01-12T06:50:47.071Z,0.77
2023-01-12T06:53:16.603Z,0.40
2023-01-12T06:55:51.434Z,0.80
2023-01-12T06:58:21.435Z,0.75
2023-01-12T07:00:52.595Z,0.60
2023-01-12T07:03:22.019Z,1.30
2023-01-12T07:05:51.124Z,0.47
2023-01-12T07:08:20.371Z,0.80
2023-01-12T07:10:50.943Z,0.40
2023-01-12T07:13:20.987Z,1.23
2023-01-12T07:15:51.170Z,0.60
2023-01-12T07:18:20.317Z,0.77
2023-01-12T07:20:50.216Z,0.73
2023-01-12T07:23:19.320Z,0.68
2023-01-12T07:25:48.356Z,0.70
2023-01-12T07:28:18.739Z,0.30
2023-01-12T07:30:47.779Z,0.60
2023-01-12T07:33:18.671Z,0.88
2023-01-12T07:35:47.927Z,0.80
2023-01-12T07:38:16.997Z,0.65
2023-01-12T07:40:45.988Z,0.65
2023-01-12T07:43:17.247Z,0.70
2023-01-12T07:45:47.714Z,0.98
2023-01-12T07:48:16.738Z,0.70
2023-01-12T07:50:47.996Z,0.93
2023-01-12T07:53:17.055Z,0.90
2023-01-12T07:55:46.271Z,0.77
2023-01-12T07:58:15.263Z,1.55
2023-01-12T08:00:44.224Z,0.70
2023-01-12T08:03:15.050Z,1.50
2023-01-12T08:05:44.164Z,1.30
2023-01-12T08:08:13.416Z,1.35
2023-01-12T08:10:43.704Z,1.63
2023-01-12T08:13:12.741Z,1.30
2023-01-12T08:15:43.701Z,1.60
2023-01-12T08:18:17.529Z,1.50
2023-01-12T08:20:48.932Z,1.83
2023-01-12T08:23:20.021Z,1.17
2023-01-12T08:25:54.795Z,2.00
2023-01-12T08:28:26.805Z,1.42
2023-01-12T08:33:25.065Z,1.17
2023-01-12T08:35:56.135Z,1.63
2023-01-12T08:38:25.418Z,1.15
2023-01-12T08:41:12.418Z,1.20
2023-01-12T08:43:59.278Z,1.30
2023-01-12T08:46:28.727Z,1.10
2023-01-12T08:48:57.885Z,1.33
2023-01-12T08:51:28.839Z,2.15
2023-01-12T08:53:58.381Z,1.35
2023-01-12T08:56:27.372Z,1.90
2023-01-12T08:58:56.555Z,2.45
2023-01-12T09:01:25.930Z,1.42
2023-01-12T09:03:55.954Z,1.73
2023-01-12T09:06:26.431Z,1.42
2023-01-12T09:08:57.802Z,1.55
2023-01-12T09:11:27.393Z,1.73
2023-01-12T09:13:58.560Z,2.15
2023-01-12T09:16:29.232Z,1.55
2023-01-12T09:18:58.276Z,2.70
2023-01-12T09:21:28.120Z,1.35
2023-01-12T09:23:58.718Z,1.00
2023-01-12T09:26:31.629Z,1.33
2023-01-12T09:29:01.228Z,2.17
2023-01-12T09:31:31.565Z,1.23
2023-01-12T09:34:01.004Z,2.15
2023-01-12T09:36:31.243Z,2.00
2023-01-12T09:39:02.367Z,2.03
2023-01-12T09:41:50.823Z,1.42
2023-01-12T09:44:39.327Z,1.40
2023-01-12T09:47:10.635Z,1.80
2023-01-12T09:49:45.879Z,0.70
2023-01-12T09:52:17.946Z,1.70
2023-01-12T09:54:49.625Z,0.93
2023-01-12T09:57:34.268Z,1.27
2023-01-12T10:00:04.387Z,1.20
2023-01-12T10:02:43.329Z,1.00
2023-01-12T10:05:17.280Z,0.90
2023-01-12T10:07:46.381Z,0.70
2023-01-12T10:10:17.413Z,1.35
2023-01-12T10:12:47.979Z,1.83
2023-01-12T10:15:24.539Z,1.38
2023-01-12T10:17:57.423Z,1.25
2023-01-12T10:20:29.103Z,1.23
2023-01-12T10:23:01.088Z,0.90
2023-01-12T10:28:01.341Z,0.90
2023-01-12T10:30:32.068Z,0.77
2023-01-12T10:33:10.374Z,0.85
2023-01-12T10:35:49.290Z,0.77
2023-01-12T10:38:22.635Z,0.57
2023-01-12T10:41:04.513Z,0.55
2023-01-12T10:43:35.089Z,0.80
2023-01-12T10:46:06.237Z,0.80
2023-01-12T10:48:35.820Z,1.47
2023-01-12T10:51:06.565Z,1.25
2023-01-12T10:53:40.330Z,0.60
2023-01-12T10:56:13.937Z,0.60
2023-01-12T10:58:45.905Z,1.00
2023-01-12T11:01:16.154Z,1.20
2023-01-12T11:03:45.296Z,0.70
2023-01-12T11:06:18.690Z,1.10
2023-01-12T11:08:47.761Z,0.65
2023-01-12T11:11:18.475Z,1.55
2023-01-12T11:13:49.154Z,0.40
2023-01-12T11:16:21.235Z,0.60
2023-01-12T11:21:20.173Z,0.52
2023-01-12T11:23:55.083Z,0.90
2023-01-12T11:26:25.934Z,0.90
2023-01-12T11:28:57.865Z,1.65
2023-01-12T11:31:28.619Z,0.70
2023-01-12T11:34:00.371Z,0.95
2023-01-12T11:36:30.957Z,0.85
2023-01-12T11:39:02.604Z,0.70
2023-01-12T11:41:35.780Z,0.85
2023-01-12T11:44:10.384Z,0.60
2023-01-12T11:46:43.375Z,0.60
2023-01-12T11:49:16.573Z,0.82
2023-01-12T11:51:46.029Z,0.93
2023-01-12T11:54:17.116Z,1.25
2023-01-12T11:56:55.328Z,0.80
2023-01-12T11:59:28.796Z,0.55
2023-01-12T12:02:00.745Z,1.23
2023-01-12T12:04:38.392Z,1.13
2023-01-12T12:07:12.190Z,0.52
2023-01-12T12:09:45.521Z,0.60
2023-01-12T12:12:19.639Z,0.93
2023-01-12T12:14:57.151Z,0.68
2023-01-12T12:17:34.784Z,0.60
2023-01-12T12:20:07.706Z,0.80
2023-01-12T12:22:47.201Z,0.80
2023-01-12T12:25:37.000Z,0.40
2023-01-12T12:28:18.565Z,1.20
2023-01-12T12:31:03.230Z,1.08
2023-01-12T12:33:42.255Z,1.10
2023-01-12T12:36:17.129Z,0.75
2023-01-12T12:39:08.721Z,0.82
2023-01-12T12:41:58.250Z,0.80
2023-01-12T12:44:50.836Z,1.05
2023-01-12T12:47:33.513Z,0.90
2023-01-12T12:50:04.045Z,1.33
2023-01-12T12:52:34.557Z,1.02
2023-01-12T12:55:04.096Z,0.70
2023-01-12T12:57:33.223Z,0.98
2023-01-12T13:00:04.176Z,0.70
2023-01-12T13:02:36.596Z,0.90
2023-01-12T13:05:07.653Z,0.50
2023-01-12T13:07:38.956Z,0.60
2023-01-12T13:10:27.232Z,1.35
2023-01-12T13:13:00.733Z,1.25
2023-01-12T13:15:36.646Z,2.05
2023-01-12T13:18:07.976Z,1.65
2023-01-12T13:20:51.784Z,2.37
2023-01-12T13:23:40.549Z,2.60
2023-01-12T13:26:24.923Z,1.40
2023-01-12T13:29:10.934Z,3.28
2023-01-12T13:31:40.151Z,2.13
2023-01-12T13:34:24.466Z,2.03
2023-01-12T13:37:08.119Z,1.80
2023-01-12T13:39:38.541Z,1.40
2023-01-12T13:42:26.681Z,1.23
2023-01-12T13:44:55.720Z,0.95
2023-01-12T13:47:26.604Z,0.95
2023-01-12T13:49:58.573Z,0.82
2023-01-12T13:52:31.930Z,0.60
2023-01-12T13:55:01.046Z,0.52
2023-01-12T13:57:31.325Z,0.80
2023-01-12T14:00:04.451Z,1.35
2023-01-12T14:02:42.326Z,1.08
2023-01-12T14:05:22.236Z,1.00
2023-01-12T14:07:57.757Z,1.10
2023-01-12T14:10:36.733Z,0.77
2023-01-12T14:13:12.143Z,1.38
2023-01-12T14:15:59.563Z,0.73
2023-01-12T14:18:29.317Z,1.10
2023-01-12T14:20:58.956Z,0.80
2023-01-12T14:23:33.644Z,1.00
2023-01-12T14:26:06.772Z,0.95
2023-01-12T14:28:35.979Z,2.25
2023-01-12T14:31:05.792Z,1.90
2023-01-12T14:33:36.357Z,1.77
2023-01-12T14:36:07.176Z,1.05
2023-01-12T14:38:41.302Z,0.70
2023-01-12T14:41:31.858Z,0.95
2023-01-12T14:44:18.877Z,1.00
2023-01-12T14:46:48.913Z,1.90
2023-01-12T14:49:21.140Z,1.17
2023-01-12T14:51:54.427Z,1.02
2023-01-12T14:54:29.255Z,1.67
2023-01-12T14:57:00.147Z,1.20
2023-01-12T14:59:31.191Z,2.20
2023-01-12T15:02:19.336Z,1.98
2023-01-12T15:04:52.650Z,1.75
2023-01-12T15:07:22.999Z,2.00
2023-01-12T15:09:56.165Z,0.73
2023-01-12T15:12:43.944Z,0.90
2023-01-12T15:15:16.630Z,0.80
2023-01-12T15:18:03.650Z,0.90
2023-01-12T15:20:53.306Z,0.98
2023-01-12T15:23:44.055Z,0.73
2023-01-12T15:26:15.271Z,0.73
2023-01-12T15:28:44.828Z,1.10
2023-01-12T15:31:17.925Z,1.35
2023-01-12T15:33:47.076Z,1.48
2023-01-12T15:36:16.584Z,1.33
2023-01-12T15:38:45.772Z,0.93
2023-01-12T15:41:18.469Z,1.63
2023-01-12T15:43:47.580Z,3.33
2023-01-12T15:46:20.203Z,1.73
2023-01-12T15:48:49.236Z,1.10
2023-01-12T15:51:18.502Z,0.47
2023-01-12T15:53:47.835Z,0.70
2023-01-12T15:56:18.234Z,0.70
2023-01-12T15:58:49.366Z,0.52
2023-01-12T16:01:20.372Z,0.80
2023-01-12T16:04:15.071Z,1.30
2023-01-12T16:06:38.913Z,0.98
2023-01-12T16:09:08.161Z,1.30
2023-01-12T16:11:39.191Z,0.68
2023-01-12T16:14:08.311Z,0.60
2023-01-12T16:16:37.968Z,0.75
2023-01-12T16:19:09.489Z,0.70
2023-01-12T16:21:38.592Z,1.00
2023-01-12T16:24:08.020Z,0.60
2023-01-12T16:26:38.586Z,1.33
2023-01-12T16:29:07.697Z,1.00
2023-01-12T16:31:39.042Z,0.68
2023-01-12T16:34:08.491Z,0.45
2023-01-12T16:36:37.497Z,0.65
2023-01-12T16:39:06.679Z,0.55
2023-01-12T16:41:35.960Z,0.82
2023-01-12T16:44:06.455Z,0.55
2023-01-12T16:46:35.505Z,0.70
2023-01-12T16:49:04.958Z,0.47
2023-01-12T16:51:35.068Z,0.38
2023-01-12T16:54:04.899Z,0.70
2023-01-12T16:56:34.342Z,0.40
2023-01-12T16:59:03.397Z,1.05
2023-01-12T17:01:35.473Z,1.20
2023-01-12T17:04:04.907Z,0.63
2023-01-12T17:06:40.265Z,0.63
2023-01-12T17:09:11.825Z,1.00
2023-01-12T17:11:42.734Z,1.20
2023-01-12T17:14:24.447Z,0.95
2023-01-12T17:16:57.891Z,0.52
2023-01-12T17:19:28.484Z,1.00
2023-01-12T17:21:58.286Z,1.60
2023-01-12T17:24:29.614Z,1.40
2023-01-12T17:26:59.301Z,1.70
2023-01-12T17:29:28.997Z,2.20
2023-01-12T17:32:04.508Z,1.50
2023-01-12T17:34:36.665Z,1.58
2023-01-12T17:37:08.267Z,1.52
2023-01-12T17:39:39.859Z,1.77
2023-01-12T17:42:26.686Z,2.70
2023-01-12T17:44:55.744Z,2.03
2023-01-12T17:47:26.384Z,2.00
2023-01-12T17:49:56.227Z,1.80
2023-01-12T17:52:25.329Z,1.85
2023-01-12T17:54:55.013Z,2.17
2023-01-12T17:57:24.467Z,1.40
2023-01-12T17:59:54.202Z,1.45
2023-01-12T18:02:23.456Z,1.02
2023-01-12T18:04:56.932Z,1.92
2023-01-12T18:07:35.168Z,1.80
2023-01-12T18:10:04.220Z,3.08
2023-01-12T18:12:36.307Z,3.05
2023-01-12T18:17:34.138Z,3.05
2023-01-12T18:20:05.008Z,2.72
2023-01-12T18:22:34.091Z,2.95
2023-01-12T18:25:05.212Z,3.25
2023-01-12T18:27:34.343Z,3.97
2023-01-12T18:30:03.608Z,3.42
2023-01-12T18:32:33.900Z,3.10
2023-01-12T18:35:04.934Z,3.70
2023-01-12T18:37:34.640Z,3.97
2023-01-12T18:40:04.347Z,4.72
2023-01-12T18:42:51.260Z,3.92
2023-01-12T18:45:20.981Z,3.92
2023-01-12T18:48:07.941Z,3.88
2023-01-12T18:50:56.548Z,4.53
2023-01-12T18:53:31.181Z,4.18
2023-01-12T18:56:04.198Z,3.53
2023-01-12T18:58:34.199Z,4.93
2023-01-12T19:01:05.090Z,3.67
2023-01-12T19:03:35.096Z,3.35
2023-01-12T19:06:22.046Z,5.18
2023-01-12T19:09:09.081Z,2.97
2023-01-12T19:11:38.630Z,4.53
2023-01-12T19:14:25.876Z,4.95
2023-01-12T19:17:12.937Z,3.42
2023-01-12T19:19:42.036Z,3.53
2023-01-12T19:22:30.512Z,3.92
2023-01-12T19:25:18.264Z,4.68
2023-01-12T19:28:05.139Z,3.65
2023-01-12T19:30:35.664Z,3.08
2023-01-12T19:33:06.772Z,4.13
2023-01-12T19:35:39.231Z,6.07
2023-01-12T19:38:12.672Z,4.40
2023-01-12T19:40:47.323Z,4.57
2023-01-12T19:43:19.846Z,4.20
2023-01-12T19:46:27.567Z,4.32
2023-01-12T19:49:03.117Z,4.20
2023-01-12T19:51:34.327Z,3.72
2023-01-12T19:54:04.687Z,3.78
2023-01-12T19:56:33.917Z,4.32
2023-01-12T19:59:03.093Z,4.20
2023-01-12T20:01:32.778Z,5.07
2023-01-12T20:04:02.167Z,4.55
2023-01-12T20:06:31.349Z,4.93
2023-01-12T20:09:00.640Z,5.80
2023-01-12T20:11:31.559Z,3.80
2023-01-12T20:14:00.807Z,6.10
2023-01-12T20:16:32.414Z,4.30
2023-01-12T20:19:03.964Z,4.03
2023-01-12T20:21:33.371Z,4.93
2023-01-12T20:24:02.587Z,4.18
2023-01-12T20:26:33.176Z,6.28
2023-01-12T20:29:02.336Z,3.72
2023-01-12T20:31:33.028Z,3.25
2023-01-12T20:34:02.521Z,2.92
2023-01-12T20:36:31.757Z,4.93
2023-01-12T20:39:01.245Z,3.65
2023-01-12T20:41:30.329Z,4.03
2023-01-12T20:44:00.702Z,4.13
2023-01-12T20:46:31.013Z,2.95
2023-01-12T20:49:04.270Z,4.53
2023-01-12T20:51:34.916Z,2.50
2023-01-12T20:54:04.833Z,3.65
2023-01-12T20:56:34.166Z,3.65
2023-01-12T20:59:04.648Z,3.78
2023-01-12T21:01:35.215Z,4.32
2023-01-12T21:04:04.670Z,4.07
2023-01-12T21:06:34.105Z,3.53
2023-01-12T21:09:04.630Z,3.05
2023-01-12T21:11:34.354Z,3.58
2023-01-12T21:14:05.448Z,4.95
2023-01-12T21:16:34.630Z,4.43
2023-01-12T21:19:03.946Z,4.80
2023-01-12T21:21:33.265Z,4.88
2023-01-12T21:24:02.738Z,5.45
2023-01-12T21:26:32.297Z,4.82
2023-01-12T21:29:01.744Z,4.68
2023-01-12T21:31:33.171Z,4.57
2023-01-12T21:34:02.325Z,5.35
2023-01-12T21:36:32.224Z,5.18
2023-01-12T21:39:01.301Z,5.32
2023-01-12T21:41:50.386Z,4.50
2023-01-12T21:44:19.954Z,5.35
2023-01-12T21:46:50.972Z,4.82
2023-01-12T21:49:20.537Z,5.35
2023-01-12T21:51:50.221Z,4.15
2023-01-12T21:54:19.421Z,6.60
2023-01-12T21:56:48.689Z,4.03
2023-01-12T21:59:18.511Z,3.05
2023-01-12T22:01:47.743Z,4.03
2023-01-12T22:04:18.225Z,3.28
2023-01-12T22:06:47.695Z,6.78
2023-01-12T22:09:16.744Z,3.80
2023-01-12T22:11:46.168Z,5.45
2023-01-12T22:14:15.341Z,3.88
2023-01-12T22:16:44.541Z,2.90
2023-01-12T22:19:13.870Z,3.35
2023-01-12T22:21:44.648Z,3.83
2023-01-12T22:24:13.925Z,4.00
2023-01-12T22:26:42.995Z,3.65
2023-01-12T22:29:13.069Z,3.63
2023-01-12T22:31:42.109Z,2.85
2023-01-12T22:34:12.887Z,3.53
2023-01-12T22:36:44.021Z,4.20
2023-01-12T22:39:14.911Z,3.33
2023-01-12T22:41:44.114Z,3.22
2023-01-12T22:44:14.362Z,2.70
2023-01-12T22:46:43.991Z,4.07
2023-01-12T22:49:13.086Z,4.97
2023-01-12T22:51:42.275Z,3.50
2023-01-12T22:54:15.894Z,4.07
2023-01-12T22:56:46.013Z,4.68
2023-01-12T22:59:15.161Z,3.97
2023-01-12T23:01:48.227Z,3.92
2023-01-12T23:04:17.459Z,3.70
2023-01-12T23:06:46.857Z,3.88
2023-01-12T23:09:17.221Z,4.40
2023-01-12T23:11:46.488Z,3.72
2023-01-12T23:14:15.685Z,3.72
2023-01-12T23:16:45.339Z,4.05
2023-01-12T23:19:14.434Z,4.03
2023-01-12T23:21:43.727Z,3.53
2023-01-12T23:24:12.755Z,4.28
2023-01-12T23:26:48.738Z,4.60
2023-01-12T23:29:18.151Z,3.15
2023-01-12T23:31:47.463Z,3.42
2023-01-12T23:34:18.186Z,3.65
2023-01-12T23:36:53.011Z,3.65
2023-01-12T23:39:22.408Z,3.00
2023-01-12T23:41:53.281Z,4.25
2023-01-12T23:44:22.476Z,2.25
2023-01-12T23:46:52.782Z,3.90
2023-01-12T23:49:23.265Z,3.58
2023-01-12T23:51:52.788Z,2.65
2023-01-12T23:54:22.205Z,4.18
2023-01-12T23:56:53.731Z,1.75
2023-01-12T23:59:22.702Z,2.80
